Baldwin County, GA

07:17 PM EST del 25 Gennaio 2015 (GMT -0500)
Middle Georgia Regional | Change Station
CLOSE
Current Station
Aeroporto
Location: Macon,
Altitudine: 361 ft
Stazioni meteo nelle vicinanze

Alt. 361 ft 32.68 °N, 83.65 °W | Updated 24 minutes ago

Sereno
Sereno
53 °F
Sembra 53 °F
N
5
Vento Variabile Vento da Sud

Oggi
Massima -- | Minima -- °F
--% Possibilità di precip.
Ieri
Massima -- | Minima -- °F
Precip. -- in
7:32 AM 5:58 PM
Luna crescente, 37% visible
Pressione 29.80 in
Visibilità 10.0 miglia
Nuvole Sereno
Punto di rugiada 32 °F
Umidità 45%
Piovosità 0.00 in
Spessore del manto nevoso Non disponibile.
Raggi UV 0 fuori da 12
Polline 2.50 fuori da 12
Qualità dell'aria Non disponibile.
Flu Activity Non disponibile.
METAR KMCN 252353Z 18004KT 10SM CLR 12/00 A2980 RMK AO2 SLP091 T01170000 10150 20117 56006

More Conditions Fewer Conditions

Pressione 29.80 in
Visibilità 10.0 miglia
Nuvole Sereno
Punto di rugiada 32 °F
Umidità 45%
Piovosità 0.00 in
Spessore del manto nevoso Non disponibile.
Raggi UV 0 fuori da 12
Polline 2.50 fuori da 12
Qualità dell'aria Non disponibile.
Flu Activity Non disponibile.
METAR KMCN 252353Z 18004KT 10SM CLR 12/00 A2980 RMK AO2 SLP091 T01170000 10150 20117 56006

More Conditions Fewer Conditions

10-Day Weather Forecast

Almanac

Astronomia

Jan. 25, 2015 Alba Tramonto
Ora attuale
Crepuscolo civile
Crepuscolo nautico
Crepuscolo astronomico
Luna
Estensione della luce visibile
Lunghezza del giorno
Tomorrow will be .
, % of the Moon is Illuminated

Gli estremi di oggi

State Highs State Lows

Community

WunderPhotos

Upload Photos

1,790,010 foto caricate!

WunderBlogs® & News

Nearby

Qualità dell'aria

  Qualità dell'aria Indice AQ Inquinante
Not available.

Profondità neve

Stazione Profondità Altitudine

Attività sismica

Città  Distanza Mag. Data & Ora
Minimo Magnitudo Mostrato è 2.5.

Temperature delle acque costiere

Località Temperatura

Stazioni meteo nelle vicinanze